Time;durP1;ratioP1;P1;durP2;ratioP2;P2;SDS_P1;SDS_P2;PMS_P1;PMS_P2;Temp;Humidity;BMP_temperature;BMP_pressure;BME280_temperature;BME280_humidity;BME280_pressure;Samples;Min_cycle;Max_cycle;Signal;HPM_P1;HPM_P2
2022/06/10 00:01:48;;;;;;;3.85;3.50;;;;;;;18.25;72.59;94170.91;5042995;28;20435;-82
2022/06/10 00:04:14;;;;;;;3.42;3.13;;;;;;;18.30;72.19;94173.44;5025679;28;20029;-82
2022/06/10 00:06:39;;;;;;;7.43;3.72;;;;;;;18.35;71.81;94175.94;5025735;28;20462;-82
2022/06/10 00:09:05;;;;;;;3.58;3.22;;;;;;;18.38;71.89;94174.56;5033940;28;20143;-82
2022/06/10 00:11:30;;;;;;;6.20;3.42;;;;;;;18.37;71.45;94179.06;5027577;28;20037;-82
2022/06/10 00:13:56;;;;;;;5.30;3.70;;;;;;;18.40;71.50;94173.22;5016821;28;20029;-82
2022/06/10 00:16:22;;;;;;;3.63;3.17;;;;;;;18.38;71.76;94172.72;5018792;28;20455;-82
2022/06/10 00:18:47;;;;;;;3.47;3.15;;;;;;;18.42;70.75;94171.06;5026078;28;20041;-81
2022/06/10 00:21:14;;;;;;;4.20;3.05;;;;;;;18.47;70.59;94170.97;4993399;28;20120;-82
2022/06/10 00:23:39;;;;;;;3.70;2.92;;;;;;;18.49;70.27;94170.66;5026207;28;20033;-82
2022/06/10 00:26:05;;;;;;;8.43;3.40;;;;;;;18.52;70.33;94170.84;5026974;28;20096;-81
2022/06/10 00:28:31;;;;;;;10.05;3.92;;;;;;;18.50;70.45;94165.09;5026036;28;20024;-81
2022/06/10 00:30:56;;;;;;;4.25;3.35;;;;;;;18.53;70.33;94164.50;5009761;28;20068;-81
2022/06/10 00:33:22;;;;;;;9.07;4.45;;;;;;;18.56;70.46;94161.28;5026145;28;20041;-81
2022/06/10 00:35:48;;;;;;;8.23;4.60;;;;;;;18.56;70.36;94160.50;5029809;28;20532;-83
2022/06/10 00:38:13;;;;;;;4.80;4.30;;;;;;;18.59;69.75;94152.78;5045007;28;20037;-81
2022/06/10 00:40:41;;;;;;;7.95;3.90;;;;;;;18.59;69.93;94160.69;5059308;28;20059;-82
2022/06/10 00:43:15;;;;;;;6.80;4.10;;;;;;;18.64;69.80;94156.41;5000877;28;20040;-81
2022/06/10 00:46:22;;;;;;;5.97;4.68;;;;;;;18.64;70.00;94151.91;5036559;28;20041;-82
2022/06/10 00:49:13;;;;;;;4.10;3.70;;;;;;;18.61;70.30;94152.50;5043950;28;20041;-82
2022/06/10 00:51:41;;;;;;;8.97;4.07;;;;;;;18.66;70.26;94143.72;5024697;28;20108;-81
2022/06/10 00:54:19;;;;;;;3.72;3.30;;;;;;;18.64;70.49;94148.50;5050046;28;20524;-81
2022/06/10 00:56:51;;;;;;;9.20;7.05;;;;;;;18.54;70.96;94152.88;5026524;28;20116;-81
2022/06/10 00:59:43;;;;;;;14.07;7.60;;;;;;;18.48;71.27;94148.81;5010951;28;20107;-81
2022/06/10 01:02:10;;;;;;;;;;;;;;;18.36;71.95;94145.91;5023839;28;20068;-81
2022/06/10 01:04:39;;;;;;;7.20;6.13;;;;;;;18.27;72.24;94148.50;5040835;28;20328;-82
2022/06/10 01:07:05;;;;;;;6.82;5.65;;;;;;;18.26;72.77;94135.63;5026381;28;20112;-82
2022/06/10 01:09:31;;;;;;;9.90;5.50;;;;;;;18.23;72.76;94152.00;5042925;28;20413;-81
2022/06/10 01:12:06;;;;;;;8.25;5.63;;;;;;;18.20;73.08;94147.31;5033519;28;20043;-81
2022/06/10 01:14:50;;;;;;;7.25;6.00;;;;;;;18.14;73.43;94146.66;5049944;28;20032;-81
2022/06/10 01:17:40;;;;;;;8.95;6.75;;;;;;;18.17;73.56;94155.81;5025572;28;20110;-82
2022/06/10 01:20:17;;;;;;;11.30;7.55;;;;;;;18.05;73.99;94147.63;5024641;28;20033;-82
2022/06/10 01:23:24;;;;;;;7.70;6.80;;;;;;;17.75;74.85;94155.06;5041281;28;20071;-83
2022/06/10 01:26:20;;;;;;;16.77;5.95;;;;;;;17.73;75.27;94157.19;4981756;28;20065;-82
2022/06/10 01:29:14;;;;;;;13.02;6.70;;;;;;;17.73;75.54;94154.56;4952475;28;20646;-82
2022/06/10 01:31:57;;;;;;;7.88;6.35;;;;;;;17.78;75.71;94157.09;5018048;28;20531;-81
2022/06/10 01:34:30;;;;;;;6.85;6.25;;;;;;;17.86;75.51;94153.00;5010998;28;20045;-82
2022/06/10 01:37:07;;;;;;;7.00;6.25;;;;;;;17.93;75.40;94158.66;5023895;28;20064;-82
2022/06/10 01:39:53;;;;;;;8.77;6.13;;;;;;;18.04;75.06;94149.47;5022880;28;20064;-82
2022/06/10 01:42:41;;;;;;;12.40;5.63;;;;;;;18.11;75.22;94159.63;5034085;28;20037;-82
2022/06/10 01:45:22;;;;;;;12.85;6.15;;;;;;;18.14;75.49;94156.41;5008322;28;20033;-82
2022/06/10 01:47:54;;;;;;;8.95;7.25;;;;;;;18.23;75.01;94157.28;5033294;28;20048;-82
2022/06/10 01:50:46;;;;;;;11.98;7.30;;;;;;;18.32;74.10;94159.97;5024321;28;20050;-82
2022/06/10 01:53:33;;;;;;;7.45;6.75;;;;;;;18.37;73.41;94155.38;5024085;28;20037;-82
2022/06/10 01:56:20;;;;;;;10.57;7.22;;;;;;;18.40;73.07;94157.44;5007676;28;20025;-82
2022/06/10 01:58:47;;;;;;;9.15;7.00;;;;;;;18.40;72.82;94157.44;5022827;28;20052;-82
2022/06/10 02:01:34;;;;;;;11.57;7.15;;;;;;;18.40;72.99;94162.69;5042443;28;20134;-82
2022/06/10 02:04:07;;;;;;;7.50;6.80;;;;;;;18.41;72.95;94163.47;5049159;28;20040;-81
2022/06/10 02:06:46;;;;;;;13.45;7.05;;;;;;;18.45;73.30;94167.84;5033347;28;20127;-82
2022/06/10 02:09:15;;;;;;;11.88;7.00;;;;;;;18.42;74.59;94171.06;5102831;23;20129;-82
2022/06/10 02:11:43;;;;;;;15.93;6.70;;;;;;;18.38;75.15;94169.31;5014043;28;20084;-82
2022/06/10 02:14:18;;;;;;;9.30;8.35;;;;;;;18.35;74.74;94167.28;5013553;28;20038;-82
2022/06/10 02:16:45;;;;;;;10.48;7.43;;;;;;;18.35;75.33;94165.41;5015296;28;20176;-82
2022/06/10 02:19:27;;;;;;;14.38;7.57;;;;;;;18.27;75.64;94163.50;5014953;28;20037;-82
2022/06/10 02:22:02;;;;;;;9.63;7.40;;;;;;;18.33;75.58;94169.44;5030380;28;20145;-82
2022/06/10 02:24:34;;;;;;;9.57;7.47;;;;;;;18.36;75.83;94166.97;5014421;28;20026;-81
2022/06/10 02:27:02;;;;;;;10.20;7.77;;;;;;;18.30;75.76;94173.44;5014476;28;20025;-82
2022/06/10 02:29:32;;;;;;;16.20;8.38;;;;;;;18.28;75.88;94170.31;5016117;28;20034;-81
2022/06/10 02:31:58;;;;;;;13.77;8.73;;;;;;;18.25;76.21;94170.91;4998856;28;20029;-82
2022/06/10 02:34:24;;;;;;;17.80;10.38;;;;;;;18.23;76.54;94173.06;5015302;28;20041;-81
2022/06/10 02:37:00;;;;;;;11.38;9.48;;;;;;;18.25;77.03;94171.69;4998620;28;20033;-83
2022/06/10 02:39:37;;;;;;;15.85;9.82;;;;;;;18.29;76.51;94177.13;5014392;28;20030;-82
2022/06/10 02:42:05;;;;;;;21.42;8.77;;;;;;;18.31;76.78;94180.25;5016071;28;20038;-82
2022/06/10 02:45:01;;;;;;;14.45;8.98;;;;;;;18.32;76.88;94181.03;5014798;28;20030;-83
2022/06/10 02:47:40;;;;;;;14.05;8.63;;;;;;;18.30;76.78;94176.84;5031055;28;20056;-81
2022/06/10 02:50:07;;;;;;;22.50;10.23;;;;;;;18.24;77.00;94185.16;5041656;28;20052;-81
2022/06/10 02:52:33;;;;;;;18.50;10.43;;;;;;;18.28;76.96;94186.88;5012294;28;20406;-82
2022/06/10 02:54:59;;;;;;;20.83;10.02;;;;;;;18.27;77.38;94184.56;5030262;28;20022;-81
2022/06/10 03:03:09;;;;;;;15.75;9.93;;;;;;;18.23;77.05;94191.50;5020589;28;20025;-81
2022/06/10 03:08:10;;;;;;;21.90;10.60;;;;;;;18.21;77.52;94194.38;5073933;22;20056;-81
2022/06/10 03:11:08;;;;;;;27.92;13.30;;;;;;;18.19;77.45;94185.22;5055019;28;20025;-81
2022/06/10 03:13:44;;;;;;;21.42;10.93;;;;;;;18.14;77.51;94195.88;5039167;28;20049;-80
2022/06/10 03:16:28;;;;;;;12.63;9.25;;;;;;;18.13;77.23;94199.56;5113042;22;20041;-80
2022/06/10 03:19:13;;;;;;;12.80;9.05;;;;;;;18.07;77.77;94200.75;5027258;28;20059;-79
2022/06/10 03:21:47;;;;;;;13.30;7.63;;;;;;;18.11;76.84;94197.25;5027604;28;20048;-82
2022/06/10 03:24:58;;;;;;;13.70;7.93;;;;;;;18.13;76.88;94195.09;5025218;28;20064;-79
2022/06/10 03:27:28;;;;;;;16.73;7.85;;;;;;;18.15;76.79;94200.06;5022078;28;20115;-79
2022/06/10 03:30:22;;;;;;;8.25;7.47;;;;;;;18.14;76.28;94198.50;5023431;28;20030;-79
2022/06/10 03:32:57;;;;;;;15.52;7.15;;;;;;;18.13;76.82;94196.94;5015701;28;20104;-79
2022/06/10 03:35:34;;;;;;;9.23;6.65;;;;;;;18.15;77.11;94195.56;5024726;28;20044;-79
2022/06/10 03:38:03;;;;;;;7.40;6.35;;;;;;;18.17;76.78;94201.31;5102080;23;20103;-79
2022/06/10 03:40:29;;;;;;;7.40;6.30;;;;;;;18.14;76.41;94201.13;5030715;28;20055;-79
2022/06/10 03:42:56;;;;;;;7.05;6.43;;;;;;;18.02;76.83;94200.84;5021225;28;20610;-79
2022/06/10 03:45:33;;;;;;;10.55;6.50;;;;;;;17.94;77.33;94208.34;5014394;28;20527;-80
2022/06/10 03:47:59;;;;;;;14.32;5.95;;;;;;;17.93;77.72;94206.00;5028808;28;20029;-81
2022/06/10 03:50:29;;;;;;;8.88;6.47;;;;;;;17.91;77.86;94208.94;5050881;28;20614;-79
2022/06/10 03:52:54;;;;;;;8.30;6.45;;;;;;;17.96;78.40;94210.69;5026117;28;20055;-79
2022/06/10 03:55:20;;;;;;;17.10;6.88;;;;;;;17.99;78.56;94213.50;5053525;28;20455;-79
2022/06/10 03:57:46;;;;;;;7.10;6.40;;;;;;;18.11;78.88;94213.03;5017042;28;20474;-79
2022/06/10 04:00:17;;;;;;;7.88;6.35;;;;;;;18.16;77.88;94220.03;5024915;23;20107;-79
2022/06/10 04:02:43;;;;;;;10.95;6.13;;;;;;;18.14;77.47;94217.69;5032860;28;20025;-79
2022/06/10 04:05:10;;;;;;;14.05;5.80;;;;;;;18.11;77.40;94222.78;5032729;28;20056;-79
2022/06/10 04:07:36;;;;;;;9.95;6.50;;;;;;;18.06;77.77;94209.69;5015489;28;20433;-79
2022/06/10 04:10:02;;;;;;;10.00;7.40;;;;;;;18.04;78.18;94217.09;5014553;28;20477;-80
2022/06/10 04:12:27;;;;;;;7.93;7.10;;;;;;;18.06;77.98;94214.97;5032232;28;20040;-80
2022/06/10 04:14:53;;;;;;;15.60;6.95;;;;;;;18.10;78.40;94218.59;5032500;28;20029;-80
2022/06/10 04:17:18;;;;;;;11.68;6.25;;;;;;;18.15;78.42;94218.47;4999532;28;20037;-80
2022/06/10 04:19:44;;;;;;;9.38;6.78;;;;;;;18.20;78.33;94216.50;5016125;28;20037;-80
2022/06/10 04:22:09;;;;;;;9.60;6.47;;;;;;;18.25;77.91;94219.06;5048384;28;20034;-80
2022/06/10 04:24:35;;;;;;;8.05;6.95;;;;;;;18.37;77.84;94209.88;5032153;28;20030;-80
2022/06/10 04:27:02;;;;;;;13.43;6.50;;;;;;;18.51;77.45;94211.41;5015148;28;20044;-80
2022/06/10 04:29:27;;;;;;;8.82;6.90;;;;;;;18.67;77.39;94213.75;5015842;28;20164;-80
2022/06/10 04:31:53;;;;;;;15.00;6.93;;;;;;;18.77;76.48;94218.81;5015699;28;20037;-79
2022/06/10 04:34:19;;;;;;;7.32;6.63;;;;;;;18.85;75.71;94218.88;5031989;28;20519;-79
2022/06/10 04:36:45;;;;;;;9.48;6.47;;;;;;;18.87;75.46;94224.63;5015317;28;20485;-79
2022/06/10 04:39:10;;;;;;;17.70;7.18;;;;;;;18.86;76.18;94222.28;5031225;28;20516;-79
2022/06/10 04:41:36;;;;;;;7.28;6.53;;;;;;;18.84;75.59;94225.22;5016451;28;20029;-78
2022/06/10 04:44:02;;;;;;;7.40;6.68;;;;;;;18.82;75.77;94227.38;5036185;28;20029;-79
2022/06/10 04:46:30;;;;;;;14.73;8.00;;;;;;;18.76;76.17;94227.78;5034111;28;20040;-79
2022/06/10 04:48:56;;;;;;;9.43;6.88;;;;;;;18.67;76.45;94224.28;5034104;28;20025;-79
2022/06/10 04:51:24;;;;;;;9.65;7.95;;;;;;;18.49;77.10;94229.34;5051624;28;20037;-79
2022/06/10 04:53:50;;;;;;;13.63;8.25;;;;;;;18.40;77.77;94231.16;5029901;28;20037;-79
2022/06/10 04:56:16;;;;;;;12.25;8.52;;;;;;;18.34;78.54;94232.31;5038875;28;20037;-80
2022/06/10 04:58:41;;;;;;;10.23;7.68;;;;;;;18.20;79.21;94237.56;5038120;28;20036;-79
2022/06/10 05:01:07;;;;;;;11.63;8.85;;;;;;;18.11;79.81;94238.56;5035775;28;20429;-80
2022/06/10 05:03:32;;;;;;;13.40;8.55;;;;;;;18.10;79.64;94242.25;5016419;28;20064;-80
2022/06/10 05:05:58;;;;;;;18.67;9.02;;;;;;;18.14;80.11;94244.00;5015816;28;20083;-80
2022/06/10 05:08:24;;;;;;;12.93;7.70;;;;;;;18.27;79.49;94247.72;5031397;28;20448;-78
2022/06/10 05:10:50;;;;;;;11.13;8.63;;;;;;;18.35;78.75;94240.97;5013909;28;20034;-80
2022/06/10 05:13:20;;;;;;;12.65;7.63;;;;;;;18.37;77.63;94247.50;5015446;28;20052;-79
2022/06/10 05:15:46;;;;;;;27.08;8.60;;;;;;;18.40;77.40;94246.94;4998616;28;20026;-81
2022/06/10 05:18:12;;;;;;;12.25;8.45;;;;;;;18.23;78.20;94254.66;5032704;28;20120;-79
2022/06/10 05:20:40;;;;;;;12.45;8.95;;;;;;;18.09;78.86;94259.13;5015361;28;20041;-80
2022/06/10 05:23:06;;;;;;;12.32;9.02;;;;;;;18.17;78.85;94253.16;5016070;28;20049;-81
2022/06/10 05:25:32;;;;;;;10.00;8.02;;;;;;;18.27;78.49;94263.50;5053155;28;20038;-77
2022/06/10 05:27:57;;;;;;;11.65;7.50;;;;;;;18.39;78.27;94266.44;5038652;28;20017;-78
2022/06/10 05:30:26;;;;;;;9.20;7.38;;;;;;;18.54;77.41;94257.44;5015249;28;20124;-79
2022/06/10 05:32:52;;;;;;;7.30;6.60;;;;;;;18.68;75.77;94262.72;5032908;28;20092;-79
2022/06/10 05:35:18;;;;;;;11.60;7.32;;;;;;;18.84;75.16;94256.03;5015351;28;20063;-78
2022/06/10 05:37:43;;;;;;;9.10;7.63;;;;;;;18.99;74.47;94253.06;5015197;28;20029;-78
2022/06/10 05:40:11;;;;;;;11.25;8.27;;;;;;;19.11;74.99;94253.34;5031031;28;20512;-77
2022/06/10 05:42:37;;;;;;;16.13;8.27;;;;;;;19.12;74.49;94252.25;5030996;28;20100;-81
2022/06/10 05:45:03;;;;;;;11.30;7.93;;;;;;;19.21;74.85;94259.47;5030163;28;20154;-78
2022/06/10 05:47:31;;;;;;;8.48;7.65;;;;;;;19.33;73.37;94264.97;5031266;28;20424;-78
2022/06/10 05:49:58;;;;;;;13.77;8.15;;;;;;;19.42;72.62;94263.19;5031515;28;20040;-78
2022/06/10 05:52:27;;;;;;;11.40;8.70;;;;;;;19.53;72.85;94251.31;5035637;28;21000;-77
2022/06/10 05:54:54;;;;;;;11.95;7.82;;;;;;;19.63;71.72;94256.34;5032530;28;20025;-77
2022/06/10 05:57:22;;;;;;;12.25;7.72;;;;;;;19.75;70.95;94259.22;5013692;28;20021;-78
2022/06/10 05:59:49;;;;;;;8.88;7.95;;;;;;;19.75;71.35;94261.84;5028241;28;20033;-80
2022/06/10 06:02:15;;;;;;;8.48;7.60;;;;;;;19.50;72.19;94270.34;5029518;28;20041;-80
2022/06/10 06:04:40;;;;;;;8.98;8.07;;;;;;;19.54;73.00;94268.72;5032276;28;20493;-78
2022/06/10 06:07:06;;;;;;;14.98;8.13;;;;;;;19.63;72.03;94266.91;5044160;28;20183;-77
2022/06/10 06:09:32;;;;;;;9.70;8.27;;;;;;;19.48;72.80;94270.66;5049054;28;20032;-78
2022/06/10 06:11:57;;;;;;;9.65;8.30;;;;;;;19.74;72.47;94270.84;5031578;28;20061;-77
2022/06/10 06:14:27;;;;;;;15.10;7.95;;;;;;;19.92;70.98;94263.81;5037719;28;20041;-78
2022/06/10 06:16:57;;;;;;;12.60;7.60;;;;;;;19.85;71.53;94273.22;5013161;28;20032;-77
2022/06/10 06:19:26;;;;;;;8.65;7.78;;;;;;;19.84;71.51;94269.03;5011233;28;20042;-78
2022/06/10 06:21:52;;;;;;;19.15;8.48;;;;;;;19.77;72.17;94274.75;5030574;28;20026;-79
2022/06/10 06:24:18;;;;;;;13.52;7.78;;;;;;;19.71;70.76;94278.59;5030558;28;20111;-77
2022/06/10 06:26:44;;;;;;;9.05;7.80;;;;;;;19.72;71.22;94282.78;5037568;28;20033;-78
2022/06/10 06:29:09;;;;;;;8.60;7.45;;;;;;;19.69;71.23;94286.81;5020025;28;20061;-78
2022/06/10 06:31:35;;;;;;;14.18;8.05;;;;;;;19.79;71.47;94286.56;5032152;28;20056;-79
2022/06/10 06:34:01;;;;;;;12.63;7.93;;;;;;;19.75;71.39;94282.97;5020076;28;20029;-77
2022/06/10 06:36:27;;;;;;;10.90;7.32;;;;;;;19.71;71.23;94282.03;5044927;28;20501;-79
2022/06/10 06:38:52;;;;;;;13.40;7.10;;;;;;;19.69;71.47;94284.19;5029372;28;20439;-78
2022/06/10 06:41:18;;;;;;;8.60;7.00;;;;;;;19.77;70.73;94280.03;5031226;28;20045;-78
2022/06/10 06:43:44;;;;;;;10.45;7.38;;;;;;;19.86;70.71;94288.00;5021695;28;20116;-78
2022/06/10 06:46:14;;;;;;;6.82;6.20;;;;;;;19.83;68.90;94285.94;5030753;28;20163;-78
2022/06/10 06:48:40;;;;;;;8.23;7.43;;;;;;;19.73;68.91;94287.00;5013814;28;20041;-77
2022/06/10 06:51:06;;;;;;;9.27;7.05;;;;;;;19.67;70.04;94291.59;5046299;28;20104;-80
2022/06/10 06:53:33;;;;;;;8.43;7.38;;;;;;;19.81;70.06;94285.47;5014832;28;20123;-78
2022/06/10 06:55:58;;;;;;;7.13;6.53;;;;;;;19.89;69.49;94288.16;5029997;28;20036;-78
2022/06/10 06:58:24;;;;;;;10.93;7.65;;;;;;;19.82;70.28;94287.03;5030463;28;20021;-81
2022/06/10 07:00:49;;;;;;;6.28;5.68;;;;;;;19.75;69.11;94282.97;5028026;28;20465;-77
2022/06/10 07:03:15;;;;;;;7.53;6.50;;;;;;;19.75;69.75;94280.31;5030098;28;20033;-77
2022/06/10 07:05:42;;;;;;;7.60;6.90;;;;;;;19.82;69.50;94285.16;5025979;28;20041;-79
2022/06/10 07:08:08;;;;;;;8.60;6.93;;;;;;;19.75;69.89;94282.97;5041218;28;20057;-78
2022/06/10 07:10:34;;;;;;;8.15;7.30;;;;;;;19.70;70.23;94277.81;5011060;28;20057;-78
2022/06/10 07:12:59;;;;;;;7.75;7.05;;;;;;;19.90;70.08;94288.94;5032892;28;20041;-78
2022/06/10 07:15:25;;;;;;;7.65;6.90;;;;;;;20.06;68.84;94280.34;5019965;28;20045;-78
2022/06/10 07:17:51;;;;;;;9.13;8.15;;;;;;;20.07;68.73;94283.75;5036331;28;20425;-78
2022/06/10 07:20:26;;;;;;;12.10;8.05;;;;;;;20.25;68.68;94282.75;5062339;28;20108;-78
2022/06/10 07:22:52;;;;;;;7.97;7.28;;;;;;;20.22;67.32;94286.00;5032295;28;20428;-78
2022/06/10 07:25:18;;;;;;;7.75;6.95;;;;;;;20.12;67.54;94288.88;5016060;28;20106;-79
2022/06/10 07:27:43;;;;;;;8.80;7.97;;;;;;;19.97;67.62;94284.78;5035759;28;20401;-82
2022/06/10 07:30:11;;;;;;;10.25;7.18;;;;;;;19.92;67.86;94290.19;5019236;28;20037;-81
2022/06/10 07:32:37;;;;;;;12.07;7.60;;;;;;;20.01;68.25;94293.66;5034904;28;20412;-77
2022/06/10 07:35:03;;;;;;;8.13;7.43;;;;;;;20.11;67.38;94297.13;5036221;28;20079;-81
2022/06/10 07:37:28;;;;;;;9.40;6.65;;;;;;;20.25;66.65;94298.59;5016014;28;20053;-80
2022/06/10 07:39:54;;;;;;;7.95;6.90;;;;;;;20.36;66.06;94305.16;5031187;28;20500;-80
2022/06/10 07:42:19;;;;;;;9.57;7.57;;;;;;;20.53;65.94;94303.69;5032013;28;20091;-80
2022/06/10 07:44:45;;;;;;;9.95;8.00;;;;;;;20.55;65.43;94296.22;5046284;28;20029;-82
2022/06/10 07:47:11;;;;;;;9.00;8.10;;;;;;;20.50;65.57;94293.72;5015651;28;20029;-81
2022/06/10 07:49:37;;;;;;;10.18;8.10;;;;;;;20.47;65.31;94296.97;5048370;28;20139;-80
2022/06/10 07:52:03;;;;;;;9.68;8.68;;;;;;;20.43;65.61;94296.03;5033542;28;20497;-79
2022/06/10 07:54:30;;;;;;;10.85;7.50;;;;;;;20.36;65.09;94299.88;5016865;28;20033;-80
2022/06/10 07:56:55;;;;;;;9.35;6.63;;;;;;;20.46;64.63;94304.13;5015864;28;20069;-81
2022/06/10 07:59:21;;;;;;;10.23;7.57;;;;;;;20.50;65.24;94304.28;5033293;28;20495;-81
2022/06/10 08:01:46;;;;;;;9.35;7.50;;;;;;;20.58;64.77;94306.19;5044977;28;20136;-80
2022/06/10 08:04:13;;;;;;;17.42;8.75;;;;;;;20.52;65.22;94299.50;5046957;28;20026;-81
2022/06/10 08:06:40;;;;;;;9.45;8.52;;;;;;;20.73;65.04;94300.47;5035796;28;20117;-81
2022/06/10 08:09:06;;;;;;;16.83;7.32;;;;;;;20.95;63.70;94304.84;5016425;28;20482;-81
2022/06/10 08:11:32;;;;;;;15.45;7.57;;;;;;;20.97;63.24;94307.97;5020020;28;20060;-84
2022/06/10 08:13:58;;;;;;;13.45;8.15;;;;;;;21.16;63.27;94313.00;5000349;28;20033;-79
2022/06/10 08:16:24;;;;;;;11.15;7.20;;;;;;;21.44;61.94;94316.91;5033391;28;20582;-80
2022/06/10 08:18:50;;;;;;;8.65;7.53;;;;;;;21.62;61.74;94312.38;5034193;28;20026;-80
2022/06/10 08:24:03;;;;;;;11.95;7.10;;;;;;;21.77;60.03;94311.13;5034054;28;20095;-80
2022/06/10 08:26:28;;;;;;;8.65;6.15;;;;;;;21.83;59.50;94312.53;5042353;28;20033;-80
2022/06/10 08:28:54;;;;;;;16.80;7.03;;;;;;;21.75;60.44;94310.66;5049213;28;20037;-80
2022/06/10 08:31:22;;;;;;;7.25;6.55;;;;;;;21.98;60.03;94313.91;5018062;28;20033;-81
2022/06/10 08:33:47;;;;;;;10.15;6.53;;;;;;;22.10;59.63;94309.50;5034952;28;20523;-80
2022/06/10 08:36:13;;;;;;;7.45;6.38;;;;;;;22.25;59.59;94312.75;5035352;28;20041;-80
2022/06/10 08:38:42;;;;;;;17.10;6.10;;;;;;;22.33;58.71;94319.91;5050352;28;20052;-81
2022/06/10 08:41:33;;;;;;;5.47;4.97;;;;;;;22.35;57.20;94317.69;5038998;28;20037;-79
2022/06/10 08:44:17;;;;;;;8.25;5.03;;;;;;;22.41;56.31;94327.00;5028154;28;20046;-80
2022/06/10 08:46:53;;;;;;;16.90;5.90;;;;;;;22.45;56.61;94327.94;5034007;28;20112;-80
2022/06/10 08:49:42;;;;;;;14.55;4.90;;;;;;;22.38;55.55;94335.59;5032709;28;20148;-80
2022/06/10 08:52:30;;;;;;;11.02;4.93;;;;;;;22.39;55.38;94334.50;5031725;28;20477;-80
2022/06/10 08:55:11;;;;;;;7.88;5.70;;;;;;;22.24;56.69;94325.22;5030362;28;20030;-80
2022/06/10 08:57:39;;;;;;;10.73;5.47;;;;;;;22.28;56.83;94323.47;5047191;28;20049;-81
2022/06/10 09:00:26;;;;;;;21.13;5.25;;;;;;;22.24;56.65;94327.06;5032286;28;20424;-81
2022/06/10 09:02:51;;;;;;;8.75;5.03;;;;;;;22.16;56.52;94329.44;5048143;28;20033;-80
2022/06/10 09:05:32;;;;;;;5.72;5.18;;;;;;;22.21;56.76;94333.00;5033676;28;20045;-80
2022/06/10 09:08:03;;;;;;;5.40;4.90;;;;;;;22.33;56.00;94333.91;5020296;28;20037;-79
2022/06/10 09:10:48;;;;;;;10.80;4.97;;;;;;;22.26;55.92;94332.84;5018994;28;20116;-79
2022/06/10 09:13:29;;;;;;;19.20;5.97;;;;;;;22.00;57.81;94349.56;5034410;28;20053;-79
2022/06/10 09:16:18;;;;;;;5.70;5.18;;;;;;;21.99;57.45;94345.34;5037622;28;20029;-80
2022/06/10 09:18:54;;;;;;;7.10;5.03;;;;;;;22.30;57.23;94336.44;5034569;28;20056;-80
2022/06/10 09:21:40;;;;;;;8.07;5.82;;;;;;;21.79;58.67;94344.09;5015872;28;20037;-79
2022/06/10 09:24:10;;;;;;;6.00;5.50;;;;;;;21.53;57.73;94338.84;5032044;28;20037;-78
2022/06/10 09:26:49;;;;;;;11.40;5.55;;;;;;;21.84;56.78;94340.53;5032096;28;20079;-79
2022/06/10 09:29:16;;;;;;;11.73;5.55;;;;;;;22.08;56.24;94334.75;5031220;28;20022;-79
2022/06/10 09:31:53;;;;;;;10.77;5.97;;;;;;;22.27;57.67;94323.78;5032273;28;20591;-79
2022/06/10 09:34:26;;;;;;;5.70;4.55;;;;;;;22.41;56.80;94334.97;5015730;28;20067;-79
2022/06/10 09:37:17;;;;;;;5.75;5.32;;;;;;;22.33;56.27;94325.19;5028331;28;20029;-79
2022/06/10 09:43:08;;;;;;;10.07;5.90;;;;;;;21.80;59.40;94334.28;5028781;28;20503;-79
2022/06/10 09:45:41;;;;;;;7.03;5.18;;;;;;;21.62;59.25;94335.41;5033636;28;20390;-76
2022/06/10 09:48:19;;;;;;;6.05;5.47;;;;;;;21.30;60.51;94334.78;5016112;28;20041;-80
2022/06/10 09:50:44;;;;;;;11.38;4.90;;;;;;;21.24;60.62;94343.94;5032120;28;20030;-80
2022/06/10 09:53:36;;;;;;;11.98;4.97;;;;;;;21.12;60.48;94352.47;5030996;28;20036;-80
2022/06/10 09:56:36;;;;;;;7.65;4.88;;;;;;;20.93;60.54;94339.53;5015636;28;20397;-76
2022/06/10 09:59:30;;;;;;;5.88;5.15;;;;;;;20.33;62.80;94353.28;5032162;28;20741;-77
2022/06/10 10:02:03;;;;;;;6.80;5.10;;;;;;;20.18;64.48;94356.34;5031185;28;20040;-78
2022/06/10 10:04:35;;;;;;;6.40;5.28;;;;;;;20.30;64.83;94374.22;5028205;28;20052;-77
2022/06/10 10:07:16;;;;;;;6.15;5.55;;;;;;;20.50;64.62;94378.22;5028619;28;20036;-77
2022/06/10 10:09:45;;;;;;;9.40;5.40;;;;;;;20.62;64.69;94378.44;5028286;28;20041;-78
2022/06/10 10:12:11;;;;;;;7.40;6.13;;;;;;;20.74;64.90;94383.16;5028409;28;20132;-78
2022/06/10 10:15:00;;;;;;;8.40;6.00;;;;;;;20.83;64.87;94376.84;5027167;28;20562;-78
2022/06/10 10:17:38;;;;;;;6.57;5.95;;;;;;;20.93;65.49;94381.81;5026855;28;20497;-78
2022/06/10 10:20:13;;;;;;;6.18;5.68;;;;;;;20.97;65.60;94381.97;5029011;28;20036;-78
2022/06/10 10:22:53;;;;;;;9.70;6.10;;;;;;;21.03;66.16;94385.28;5028347;28;20121;-78
2022/06/10 10:25:20;;;;;;;9.65;7.10;;;;;;;21.02;67.05;94386.38;5028101;28;20497;-78
2022/06/10 10:27:46;;;;;;;9.50;7.85;;;;;;;21.05;67.16;94393.69;5028154;28;20038;-78
2022/06/10 10:30:21;;;;;;;17.48;8.93;;;;;;;21.02;68.02;94383.72;5026515;28;20026;-78
2022/06/10 10:32:53;;;;;;;11.88;8.15;;;;;;;20.98;69.23;94381.66;5028353;28;20030;-78
2022/06/10 10:35:23;;;;;;;15.85;7.50;;;;;;;20.97;69.30;94387.25;5027871;28;20481;-78
2022/06/10 10:38:10;;;;;;;10.77;6.65;;;;;;;20.97;69.06;94390.69;5031286;28;20033;-77
2022/06/10 10:40:40;;;;;;;10.05;6.10;;;;;;;20.94;68.52;94385.25;5035887;28;20496;-78
2022/06/10 10:43:21;;;;;;;13.27;6.75;;;;;;;20.96;68.88;94389.13;5032588;28;20035;-77
2022/06/10 10:45:52;;;;;;;10.95;6.82;;;;;;;20.96;68.19;94391.78;5015389;28;20037;-78
2022/06/10 10:48:25;;;;;;;9.10;6.85;;;;;;;20.93;68.71;94387.09;5032214;28;20592;-76
2022/06/10 10:50:57;;;;;;;9.75;6.47;;;;;;;20.95;68.08;94390.22;5031589;28;20120;-79
2022/06/10 10:53:38;;;;;;;9.15;6.38;;;;;;;20.98;68.52;94384.31;5033981;28;20108;-78
2022/06/10 10:56:04;;;;;;;8.63;6.95;;;;;;;20.97;69.23;94380.13;5015674;28;20473;-78
2022/06/10 10:58:46;;;;;;;12.07;7.68;;;;;;;20.97;70.17;94380.13;5014746;28;20064;-78
2022/06/10 11:03:55;;;;;;;9.27;7.13;;;;;;;20.91;69.23;94373.41;5045287;28;20044;-81
2022/06/10 11:06:26;;;;;;;13.30;7.63;;;;;;;20.91;69.19;94375.28;5030719;28;20484;-83
2022/06/10 11:09:00;;;;;;;9.95;7.40;;;;;;;20.96;69.72;94373.28;5018415;28;20037;-84
2022/06/10 11:11:30;;;;;;;11.05;7.53;;;;;;;21.13;68.76;94374.41;5039397;28;20055;-85
2022/06/10 11:14:17;;;;;;;11.10;7.00;;;;;;;21.24;67.27;94380.97;5062067;28;20064;-84
2022/06/10 11:17:11;;;;;;;9.68;6.45;;;;;;;21.39;66.40;94377.91;5022011;28;20109;-84
2022/06/10 11:19:36;;;;;;;7.07;5.80;;;;;;;21.55;65.76;94378.22;5044458;28;20049;-85
2022/06/10 11:22:02;;;;;;;8.93;6.40;;;;;;;21.72;66.70;94382.72;5035151;28;20035;-85
2022/06/10 11:24:32;;;;;;;8.00;6.60;;;;;;;21.80;65.98;94372.16;5034727;28;20061;-85
2022/06/10 11:27:02;;;;;;;10.75;6.47;;;;;;;21.93;65.19;94367.00;5047403;28;20037;-85
2022/06/10 11:29:28;;;;;;;10.73;6.70;;;;;;;22.19;64.58;94366.97;5036928;28;20032;-83
2022/06/10 11:32:00;;;;;;;15.77;6.05;;;;;;;22.33;63.41;94352.47;5056182;28;20033;-82
2022/06/10 11:34:38;;;;;;;7.60;6.00;;;;;;;22.53;61.90;94361.59;5051006;28;20056;-83
2022/06/10 11:37:31;;;;;;;7.63;5.90;;;;;;;22.81;61.86;94363.81;5043897;28;20033;-83
2022/06/10 11:40:13;;;;;;;10.38;5.63;;;;;;;22.98;60.07;94361.09;5043076;28;20029;-84
2022/06/10 11:43:22;;;;;;;7.95;6.05;;;;;;;23.27;59.29;94353.13;5042469;28;20096;-83
2022/06/10 11:45:56;;;;;;;7.53;5.35;;;;;;;23.63;59.08;94351.78;5033789;28;20042;-83
2022/06/10 11:48:31;;;;;;;8.63;6.72;;;;;;;23.79;59.09;94350.09;5027023;28;20037;-86
2022/06/10 11:51:01;;;;;;;8.35;6.03;;;;;;;23.89;57.49;94351.56;5042290;28;20040;-84
2022/06/10 11:53:58;;;;;;;6.68;5.97;;;;;;;23.89;56.54;94348.91;5042372;28;20048;-83
2022/06/10 12:01:59;;;;;;;7.68;5.72;;;;;;;23.27;57.55;94347.03;5068467;28;20055;-84
2022/06/10 12:04:33;;;;;;;8.15;5.68;;;;;;;23.36;57.50;94350.41;5037012;28;20618;-83
2022/06/10 12:07:01;;;;;;;7.35;6.20;;;;;;;23.36;57.66;94351.19;5053474;28;20033;-83
2022/06/10 12:09:27;;;;;;;5.47;4.97;;;;;;;23.39;56.64;94335.72;5047540;28;20121;-83
2022/06/10 12:12:01;;;;;;;10.35;5.65;;;;;;;23.40;56.82;94345.22;5043900;28;20025;-83
2022/06/10 12:14:47;;;;;;;5.55;5.10;;;;;;;23.18;54.70;94344.44;5044162;28;20093;-83